sensor_id;sensor_type;location;lat;lon;timestamp;P1;durP1;ratioP1;P2;durP2;ratioP2
13708;SDS011;54933;51.908;7.730;2022-07-29T00:02:25;1.43;;;0.60;;
13708;SDS011;54933;51.908;7.730;2022-07-29T00:04:51;0.60;;;0.60;;
13708;SDS011;54933;51.908;7.730;2022-07-29T00:07:16;0.80;;;0.80;;
13708;SDS011;54933;51.908;7.730;2022-07-29T00:09:41;0.63;;;0.63;;
13708;SDS011;54933;51.908;7.730;2022-07-29T00:12:06;0.53;;;0.53;;
13708;SDS011;54933;51.908;7.730;2022-07-29T00:14:32;0.47;;;0.47;;
13708;SDS011;54933;51.908;7.730;2022-07-29T00:16:57;0.67;;;0.67;;
13708;SDS011;54933;51.908;7.730;2022-07-29T00:19:22;0.60;;;0.60;;
13708;SDS011;54933;51.908;7.730;2022-07-29T00:21:48;0.60;;;0.60;;
13708;SDS011;54933;51.908;7.730;2022-07-29T00:24:13;0.60;;;0.60;;
13708;SDS011;54933;51.908;7.730;2022-07-29T00:26:38;0.73;;;0.70;;
13708;SDS011;54933;51.908;7.730;2022-07-29T00:29:04;1.53;;;0.67;;
13708;SDS011;54933;51.908;7.730;2022-07-29T00:31:29;0.60;;;0.60;;
13708;SDS011;54933;51.908;7.730;2022-07-29T00:33:54;0.70;;;0.57;;
13708;SDS011;54933;51.908;7.730;2022-07-29T00:36:20;1.93;;;0.80;;
13708;SDS011;54933;51.908;7.730;2022-07-29T00:38:46;0.50;;;0.50;;
13708;SDS011;54933;51.908;7.730;2022-07-29T00:41:12;0.60;;;0.60;;
13708;SDS011;54933;51.908;7.730;2022-07-29T00:43:38;0.60;;;0.60;;
13708;SDS011;54933;51.908;7.730;2022-07-29T00:46:03;0.80;;;0.63;;
13708;SDS011;54933;51.908;7.730;2022-07-29T00:48:28;0.70;;;0.70;;
13708;SDS011;54933;51.908;7.730;2022-07-29T00:50:54;0.53;;;0.53;;
13708;SDS011;54933;51.908;7.730;2022-07-29T00:53:22;0.90;;;0.57;;
13708;SDS011;54933;51.908;7.730;2022-07-29T00:55:48;0.50;;;0.50;;
13708;SDS011;54933;51.908;7.730;2022-07-29T00:58:13;0.70;;;0.60;;
13708;SDS011;54933;51.908;7.730;2022-07-29T01:00:38;0.50;;;0.50;;
13708;SDS011;54933;51.908;7.730;2022-07-29T01:03:05;1.33;;;1.07;;
13708;SDS011;54933;51.908;7.730;2022-07-29T01:05:31;0.57;;;0.57;;
13708;SDS011;54933;51.908;7.730;2022-07-29T01:07:57;0.53;;;0.53;;
13708;SDS011;54933;51.908;7.730;2022-07-29T01:10:23;0.50;;;0.50;;
13708;SDS011;54933;51.908;7.730;2022-07-29T01:12:50;0.57;;;0.57;;
13708;SDS011;54933;51.908;7.730;2022-07-29T01:15:17;0.60;;;0.60;;
13708;SDS011;54933;51.908;7.730;2022-07-29T01:20:41;0.50;;;0.50;;
13708;SDS011;54933;51.908;7.730;2022-07-29T01:26:35;0.50;;;0.50;;
13708;SDS011;54933;51.908;7.730;2022-07-29T01:32:21;0.70;;;0.70;;
13708;SDS011;54933;51.908;7.730;2022-07-29T01:34:55;1.37;;;0.50;;
13708;SDS011;54933;51.908;7.730;2022-07-29T01:37:28;0.77;;;0.70;;
13708;SDS011;54933;51.908;7.730;2022-07-29T01:40:01;0.40;;;0.40;;
13708;SDS011;54933;51.908;7.730;2022-07-29T01:42:36;0.60;;;0.60;;
13708;SDS011;54933;51.908;7.730;2022-07-29T01:48:10;0.50;;;0.50;;
13708;SDS011;54933;51.908;7.730;2022-07-29T01:50:41;0.53;;;0.53;;
13708;SDS011;54933;51.908;7.730;2022-07-29T01:53:12;1.20;;;0.70;;
13708;SDS011;54933;51.908;7.730;2022-07-29T01:55:40;0.70;;;0.70;;
13708;SDS011;54933;51.908;7.730;2022-07-29T01:58:09;0.70;;;0.70;;
13708;SDS011;54933;51.908;7.730;2022-07-29T02:00:37;0.80;;;0.50;;
13708;SDS011;54933;51.908;7.730;2022-07-29T02:03:05;0.53;;;0.53;;
13708;SDS011;54933;51.908;7.730;2022-07-29T02:05:34;0.47;;;0.47;;
13708;SDS011;54933;51.908;7.730;2022-07-29T02:08:02;0.50;;;0.50;;
13708;SDS011;54933;51.908;7.730;2022-07-29T02:10:30;0.47;;;0.40;;
13708;SDS011;54933;51.908;7.730;2022-07-29T02:12:58;0.40;;;0.40;;
13708;SDS011;54933;51.908;7.730;2022-07-29T02:15:25;0.83;;;0.53;;
13708;SDS011;54933;51.908;7.730;2022-07-29T02:17:56;0.30;;;0.30;;
13708;SDS011;54933;51.908;7.730;2022-07-29T02:20:24;0.77;;;0.57;;
13708;SDS011;54933;51.908;7.730;2022-07-29T02:22:51;0.80;;;0.80;;
13708;SDS011;54933;51.908;7.730;2022-07-29T02:25:18;0.60;;;0.60;;
13708;SDS011;54933;51.908;7.730;2022-07-29T02:27:44;0.60;;;0.60;;
13708;SDS011;54933;51.908;7.730;2022-07-29T02:30:10;0.50;;;0.50;;
13708;SDS011;54933;51.908;7.730;2022-07-29T02:32:37;0.63;;;0.63;;
13708;SDS011;54933;51.908;7.730;2022-07-29T02:35:06;1.13;;;0.60;;
13708;SDS011;54933;51.908;7.730;2022-07-29T02:37:34;0.40;;;0.40;;
13708;SDS011;54933;51.908;7.730;2022-07-29T02:40:01;2.10;;;0.60;;
13708;SDS011;54933;51.908;7.730;2022-07-29T02:42:28;0.70;;;0.70;;
13708;SDS011;54933;51.908;7.730;2022-07-29T02:44:55;0.50;;;0.50;;
13708;SDS011;54933;51.908;7.730;2022-07-29T02:52:37;0.97;;;0.60;;
13708;SDS011;54933;51.908;7.730;2022-07-29T02:55:10;0.60;;;0.60;;
13708;SDS011;54933;51.908;7.730;2022-07-29T02:57:43;0.70;;;0.70;;
13708;SDS011;54933;51.908;7.730;2022-07-29T03:00:11;0.70;;;0.70;;
13708;SDS011;54933;51.908;7.730;2022-07-29T03:02:39;0.60;;;0.60;;
13708;SDS011;54933;51.908;7.730;2022-07-29T03:05:09;0.67;;;0.67;;
13708;SDS011;54933;51.908;7.730;2022-07-29T03:07:37;0.77;;;0.50;;
13708;SDS011;54933;51.908;7.730;2022-07-29T03:10:06;0.60;;;0.60;;
13708;SDS011;54933;51.908;7.730;2022-07-29T03:12:33;0.50;;;0.50;;
13708;SDS011;54933;51.908;7.730;2022-07-29T03:15:00;0.63;;;0.50;;
13708;SDS011;54933;51.908;7.730;2022-07-29T03:17:26;0.70;;;0.70;;
13708;SDS011;54933;51.908;7.730;2022-07-29T03:19:52;0.50;;;0.50;;
13708;SDS011;54933;51.908;7.730;2022-07-29T03:22:18;0.50;;;0.50;;
13708;SDS011;54933;51.908;7.730;2022-07-29T03:24:44;0.70;;;0.70;;
13708;SDS011;54933;51.908;7.730;2022-07-29T03:27:09;1.60;;;0.70;;
13708;SDS011;54933;51.908;7.730;2022-07-29T03:29:34;1.00;;;0.50;;
13708;SDS011;54933;51.908;7.730;2022-07-29T03:32:03;0.50;;;0.50;;
13708;SDS011;54933;51.908;7.730;2022-07-29T03:34:30;0.47;;;0.47;;
13708;SDS011;54933;51.908;7.730;2022-07-29T03:36:55;0.97;;;0.87;;
13708;SDS011;54933;51.908;7.730;2022-07-29T03:39:21;0.87;;;0.67;;
13708;SDS011;54933;51.908;7.730;2022-07-29T03:41:49;0.70;;;0.60;;
13708;SDS011;54933;51.908;7.730;2022-07-29T03:44:18;1.20;;;0.67;;
13708;SDS011;54933;51.908;7.730;2022-07-29T03:46:45;0.60;;;0.60;;
13708;SDS011;54933;51.908;7.730;2022-07-29T03:49:14;0.53;;;0.53;;
13708;SDS011;54933;51.908;7.730;2022-07-29T03:51:41;0.53;;;0.53;;
13708;SDS011;54933;51.908;7.730;2022-07-29T03:54:07;1.83;;;0.60;;
13708;SDS011;54933;51.908;7.730;2022-07-29T03:56:34;0.90;;;0.90;;
13708;SDS011;54933;51.908;7.730;2022-07-29T03:59:04;0.60;;;0.50;;
13708;SDS011;54933;51.908;7.730;2022-07-29T04:01:30;0.50;;;0.50;;
13708;SDS011;54933;51.908;7.730;2022-07-29T04:03:58;0.50;;;0.50;;
13708;SDS011;54933;51.908;7.730;2022-07-29T04:06:25;0.50;;;0.40;;
13708;SDS011;54933;51.908;7.730;2022-07-29T04:08:50;0.63;;;0.50;;
13708;SDS011;54933;51.908;7.730;2022-07-29T04:11:16;0.40;;;0.40;;
13708;SDS011;54933;51.908;7.730;2022-07-29T04:13:41;0.83;;;0.80;;
13708;SDS011;54933;51.908;7.730;2022-07-29T04:16:07;0.60;;;0.60;;
13708;SDS011;54933;51.908;7.730;2022-07-29T04:18:32;0.57;;;0.57;;
13708;SDS011;54933;51.908;7.730;2022-07-29T04:20:57;0.50;;;0.50;;
13708;SDS011;54933;51.908;7.730;2022-07-29T04:23:25;0.40;;;0.30;;
13708;SDS011;54933;51.908;7.730;2022-07-29T04:25:51;0.60;;;0.60;;
13708;SDS011;54933;51.908;7.730;2022-07-29T04:28:16;1.70;;;0.97;;
13708;SDS011;54933;51.908;7.730;2022-07-29T04:30:42;0.60;;;0.60;;
13708;SDS011;54933;51.908;7.730;2022-07-29T04:33:07;0.50;;;0.50;;
13708;SDS011;54933;51.908;7.730;2022-07-29T04:35:36;0.60;;;0.60;;
13708;SDS011;54933;51.908;7.730;2022-07-29T04:38:02;0.60;;;0.60;;
13708;SDS011;54933;51.908;7.730;2022-07-29T04:40:28;0.50;;;0.50;;
13708;SDS011;54933;51.908;7.730;2022-07-29T04:42:54;0.97;;;0.47;;
13708;SDS011;54933;51.908;7.730;2022-07-29T04:45:19;0.60;;;0.60;;
13708;SDS011;54933;51.908;7.730;2022-07-29T04:47:44;0.90;;;0.67;;
13708;SDS011;54933;51.908;7.730;2022-07-29T04:50:10;0.77;;;0.60;;
13708;SDS011;54933;51.908;7.730;2022-07-29T04:52:35;0.80;;;0.80;;
13708;SDS011;54933;51.908;7.730;2022-07-29T04:55:01;0.57;;;0.57;;
13708;SDS011;54933;51.908;7.730;2022-07-29T04:57:26;0.73;;;0.73;;
13708;SDS011;54933;51.908;7.730;2022-07-29T04:59:51;0.40;;;0.40;;
13708;SDS011;54933;51.908;7.730;2022-07-29T05:02:17;0.40;;;0.40;;
13708;SDS011;54933;51.908;7.730;2022-07-29T05:04:42;0.50;;;0.50;;
13708;SDS011;54933;51.908;7.730;2022-07-29T05:07:07;0.63;;;0.60;;
13708;SDS011;54933;51.908;7.730;2022-07-29T05:09:33;0.77;;;0.50;;
13708;SDS011;54933;51.908;7.730;2022-07-29T05:11:58;0.60;;;0.60;;
13708;SDS011;54933;51.908;7.730;2022-07-29T05:14:23;0.63;;;0.63;;
13708;SDS011;54933;51.908;7.730;2022-07-29T05:16:48;0.90;;;0.43;;
13708;SDS011;54933;51.908;7.730;2022-07-29T05:19:16;0.60;;;0.60;;
13708;SDS011;54933;51.908;7.730;2022-07-29T05:21:41;0.67;;;0.67;;
13708;SDS011;54933;51.908;7.730;2022-07-29T05:24:07;0.50;;;0.50;;
13708;SDS011;54933;51.908;7.730;2022-07-29T05:26:32;0.70;;;0.70;;
13708;SDS011;54933;51.908;7.730;2022-07-29T05:28:58;0.87;;;0.77;;
13708;SDS011;54933;51.908;7.730;2022-07-29T05:31:23;0.87;;;0.60;;
13708;SDS011;54933;51.908;7.730;2022-07-29T05:33:48;0.90;;;0.80;;
13708;SDS011;54933;51.908;7.730;2022-07-29T05:36:13;0.60;;;0.60;;
13708;SDS011;54933;51.908;7.730;2022-07-29T05:38:39;0.70;;;0.70;;
13708;SDS011;54933;51.908;7.730;2022-07-29T05:41:04;0.60;;;0.60;;
13708;SDS011;54933;51.908;7.730;2022-07-29T05:43:30;0.57;;;0.57;;
13708;SDS011;54933;51.908;7.730;2022-07-29T05:45:56;0.70;;;0.70;;
13708;SDS011;54933;51.908;7.730;2022-07-29T05:48:22;0.60;;;0.60;;
13708;SDS011;54933;51.908;7.730;2022-07-29T05:50:47;1.23;;;0.80;;
13708;SDS011;54933;51.908;7.730;2022-07-29T05:53:12;0.50;;;0.50;;
13708;SDS011;54933;51.908;7.730;2022-07-29T05:55:38;0.70;;;0.70;;
13708;SDS011;54933;51.908;7.730;2022-07-29T05:58:03;3.83;;;0.80;;
13708;SDS011;54933;51.908;7.730;2022-07-29T06:00:28;1.37;;;0.60;;
13708;SDS011;54933;51.908;7.730;2022-07-29T06:02:54;0.67;;;0.67;;
13708;SDS011;54933;51.908;7.730;2022-07-29T06:05:19;1.03;;;0.60;;
13708;SDS011;54933;51.908;7.730;2022-07-29T06:07:45;1.43;;;0.80;;
13708;SDS011;54933;51.908;7.730;2022-07-29T06:10:10;0.60;;;0.60;;
13708;SDS011;54933;51.908;7.730;2022-07-29T06:12:35;1.70;;;0.70;;
13708;SDS011;54933;51.908;7.730;2022-07-29T06:15:01;0.43;;;0.43;;
13708;SDS011;54933;51.908;7.730;2022-07-29T06:17:26;0.80;;;0.80;;
13708;SDS011;54933;51.908;7.730;2022-07-29T06:19:52;0.87;;;0.60;;
13708;SDS011;54933;51.908;7.730;2022-07-29T06:22:17;0.60;;;0.60;;
13708;SDS011;54933;51.908;7.730;2022-07-29T06:24:42;0.53;;;0.53;;
13708;SDS011;54933;51.908;7.730;2022-07-29T06:27:09;0.93;;;0.80;;
13708;SDS011;54933;51.908;7.730;2022-07-29T06:29:35;0.60;;;0.57;;
13708;SDS011;54933;51.908;7.730;2022-07-29T06:32:00;0.70;;;0.70;;
13708;SDS011;54933;51.908;7.730;2022-07-29T06:34:25;0.60;;;0.60;;
13708;SDS011;54933;51.908;7.730;2022-07-29T06:36:51;0.67;;;0.67;;
13708;SDS011;54933;51.908;7.730;2022-07-29T06:39:17;0.70;;;0.70;;
13708;SDS011;54933;51.908;7.730;2022-07-29T06:41:45;0.57;;;0.57;;
13708;SDS011;54933;51.908;7.730;2022-07-29T06:44:14;1.87;;;0.67;;
13708;SDS011;54933;51.908;7.730;2022-07-29T06:46:40;0.60;;;0.60;;
13708;SDS011;54933;51.908;7.730;2022-07-29T06:49:06;0.40;;;0.40;;
13708;SDS011;54933;51.908;7.730;2022-07-29T06:51:31;0.60;;;0.60;;
13708;SDS011;54933;51.908;7.730;2022-07-29T06:53:57;0.60;;;0.60;;
13708;SDS011;54933;51.908;7.730;2022-07-29T06:56:22;0.70;;;0.70;;
13708;SDS011;54933;51.908;7.730;2022-07-29T06:58:47;0.50;;;0.50;;
13708;SDS011;54933;51.908;7.730;2022-07-29T07:01:13;0.73;;;0.67;;
13708;SDS011;54933;51.908;7.730;2022-07-29T07:03:38;0.60;;;0.60;;
13708;SDS011;54933;51.908;7.730;2022-07-29T07:06:03;0.83;;;0.63;;
13708;SDS011;54933;51.908;7.730;2022-07-29T07:08:29;0.63;;;0.63;;
13708;SDS011;54933;51.908;7.730;2022-07-29T07:10:54;0.80;;;0.80;;
13708;SDS011;54933;51.908;7.730;2022-07-29T07:13:20;0.43;;;0.43;;
13708;SDS011;54933;51.908;7.730;2022-07-29T07:15:45;0.90;;;0.90;;
13708;SDS011;54933;51.908;7.730;2022-07-29T07:18:13;0.77;;;0.50;;
13708;SDS011;54933;51.908;7.730;2022-07-29T07:20:39;0.73;;;0.73;;
13708;SDS011;54933;51.908;7.730;2022-07-29T07:23:04;2.10;;;0.67;;
13708;SDS011;54933;51.908;7.730;2022-07-29T07:25:29;0.60;;;0.60;;
13708;SDS011;54933;51.908;7.730;2022-07-29T07:27:55;0.60;;;0.60;;
13708;SDS011;54933;51.908;7.730;2022-07-29T07:30:20;3.97;;;1.23;;
13708;SDS011;54933;51.908;7.730;2022-07-29T07:32:45;0.80;;;0.80;;
13708;SDS011;54933;51.908;7.730;2022-07-29T07:35:11;2.00;;;0.80;;
13708;SDS011;54933;51.908;7.730;2022-07-29T07:37:36;1.80;;;0.70;;
13708;SDS011;54933;51.908;7.730;2022-07-29T07:40:03;1.13;;;0.73;;
13708;SDS011;54933;51.908;7.730;2022-07-29T07:42:29;0.73;;;0.70;;
13708;SDS011;54933;51.908;7.730;2022-07-29T07:44:55;0.93;;;0.60;;
13708;SDS011;54933;51.908;7.730;2022-07-29T07:47:20;1.03;;;0.70;;
13708;SDS011;54933;51.908;7.730;2022-07-29T07:49:49;2.90;;;0.87;;
13708;SDS011;54933;51.908;7.730;2022-07-29T07:52:15;0.63;;;0.63;;
13708;SDS011;54933;51.908;7.730;2022-07-29T07:54:42;2.17;;;0.80;;
13708;SDS011;54933;51.908;7.730;2022-07-29T07:57:08;0.67;;;0.67;;
13708;SDS011;54933;51.908;7.730;2022-07-29T07:59:34;2.53;;;0.80;;
13708;SDS011;54933;51.908;7.730;2022-07-29T08:02:00;1.03;;;0.80;;
13708;SDS011;54933;51.908;7.730;2022-07-29T08:04:26;0.67;;;0.67;;
13708;SDS011;54933;51.908;7.730;2022-07-29T08:06:51;1.60;;;0.80;;
13708;SDS011;54933;51.908;7.730;2022-07-29T08:09:19;2.10;;;1.00;;
13708;SDS011;54933;51.908;7.730;2022-07-29T08:11:44;0.90;;;0.53;;
13708;SDS011;54933;51.908;7.730;2022-07-29T08:14:09;0.67;;;0.63;;
13708;SDS011;54933;51.908;7.730;2022-07-29T08:16:34;5.30;;;0.50;;
13708;SDS011;54933;51.908;7.730;2022-07-29T08:19:00;0.57;;;0.57;;
13708;SDS011;54933;51.908;7.730;2022-07-29T08:21:25;0.60;;;0.60;;
13708;SDS011;54933;51.908;7.730;2022-07-29T08:23:50;0.77;;;0.77;;
13708;SDS011;54933;51.908;7.730;2022-07-29T08:26:40;1.53;;;0.60;;
13708;SDS011;54933;51.908;7.730;2022-07-29T08:29:06;1.50;;;0.80;;
13708;SDS011;54933;51.908;7.730;2022-07-29T08:31:31;1.70;;;0.80;;
13708;SDS011;54933;51.908;7.730;2022-07-29T08:33:56;1.27;;;0.70;;
13708;SDS011;54933;51.908;7.730;2022-07-29T08:36:24;0.90;;;0.90;;
13708;SDS011;54933;51.908;7.730;2022-07-29T08:38:50;4.20;;;1.10;;
13708;SDS011;54933;51.908;7.730;2022-07-29T08:41:15;1.77;;;1.00;;
13708;SDS011;54933;51.908;7.730;2022-07-29T08:43:43;3.60;;;0.63;;
13708;SDS011;54933;51.908;7.730;2022-07-29T08:46:09;0.53;;;0.50;;
13708;SDS011;54933;51.908;7.730;2022-07-29T08:48:34;2.90;;;1.00;;
13708;SDS011;54933;51.908;7.730;2022-07-29T08:51:00;1.27;;;0.70;;
13708;SDS011;54933;51.908;7.730;2022-07-29T08:53:26;0.83;;;0.83;;
13708;SDS011;54933;51.908;7.730;2022-07-29T08:55:53;0.60;;;0.60;;
13708;SDS011;54933;51.908;7.730;2022-07-29T08:58:20;1.37;;;0.83;;
13708;SDS011;54933;51.908;7.730;2022-07-29T09:00:52;0.73;;;0.73;;
13708;SDS011;54933;51.908;7.730;2022-07-29T09:03:20;3.00;;;0.90;;
13708;SDS011;54933;51.908;7.730;2022-07-29T09:05:48;2.20;;;0.93;;
13708;SDS011;54933;51.908;7.730;2022-07-29T09:08:14;1.20;;;0.87;;
13708;SDS011;54933;51.908;7.730;2022-07-29T09:10:41;1.57;;;0.90;;
13708;SDS011;54933;51.908;7.730;2022-07-29T09:13:07;5.07;;;0.83;;
13708;SDS011;54933;51.908;7.730;2022-07-29T09:15:33;4.37;;;0.87;;
13708;SDS011;54933;51.908;7.730;2022-07-29T09:17:58;3.50;;;0.90;;
13708;SDS011;54933;51.908;7.730;2022-07-29T09:20:24;1.50;;;1.10;;
13708;SDS011;54933;51.908;7.730;2022-07-29T09:22:51;2.97;;;0.90;;
13708;SDS011;54933;51.908;7.730;2022-07-29T09:25:34;0.87;;;0.77;;
13708;SDS011;54933;51.908;7.730;2022-07-29T09:28:05;4.00;;;0.90;;
13708;SDS011;54933;51.908;7.730;2022-07-29T09:30:35;1.00;;;0.80;;
13708;SDS011;54933;51.908;7.730;2022-07-29T09:33:14;1.80;;;0.80;;
13708;SDS011;54933;51.908;7.730;2022-07-29T09:35:39;3.77;;;0.90;;
13708;SDS011;54933;51.908;7.730;2022-07-29T09:38:12;1.63;;;0.70;;
13708;SDS011;54933;51.908;7.730;2022-07-29T09:40:38;2.17;;;1.00;;
13708;SDS011;54933;51.908;7.730;2022-07-29T09:43:11;1.07;;;0.70;;
13708;SDS011;54933;51.908;7.730;2022-07-29T09:45:37;3.77;;;1.00;;
13708;SDS011;54933;51.908;7.730;2022-07-29T09:48:15;4.33;;;1.30;;
13708;SDS011;54933;51.908;7.730;2022-07-29T09:50:43;1.50;;;1.00;;
13708;SDS011;54933;51.908;7.730;2022-07-29T09:53:10;0.80;;;0.80;;
13708;SDS011;54933;51.908;7.730;2022-07-29T09:55:48;1.77;;;0.80;;
13708;SDS011;54933;51.908;7.730;2022-07-29T09:58:15;3.03;;;0.80;;
13708;SDS011;54933;51.908;7.730;2022-07-29T10:00:45;0.57;;;0.53;;
13708;SDS011;54933;51.908;7.730;2022-07-29T10:03:11;3.50;;;0.80;;
13708;SDS011;54933;51.908;7.730;2022-07-29T10:05:38;2.30;;;1.40;;
13708;SDS011;54933;51.908;7.730;2022-07-29T10:08:04;0.80;;;0.80;;
13708;SDS011;54933;51.908;7.730;2022-07-29T10:10:30;2.77;;;0.87;;
13708;SDS011;54933;51.908;7.730;2022-07-29T10:13:01;1.33;;;0.70;;
13708;SDS011;54933;51.908;7.730;2022-07-29T10:15:29;2.73;;;0.80;;
13708;SDS011;54933;51.908;7.730;2022-07-29T10:17:56;2.47;;;0.80;;
13708;SDS011;54933;51.908;7.730;2022-07-29T10:20:23;1.57;;;0.73;;
13708;SDS011;54933;51.908;7.730;2022-07-29T10:22:49;0.80;;;0.80;;
13708;SDS011;54933;51.908;7.730;2022-07-29T10:25:16;0.93;;;0.93;;
13708;SDS011;54933;51.908;7.730;2022-07-29T10:27:43;1.43;;;0.80;;
13708;SDS011;54933;51.908;7.730;2022-07-29T10:30:10;2.33;;;0.83;;
13708;SDS011;54933;51.908;7.730;2022-07-29T10:38:34;1.23;;;1.13;;
13708;SDS011;54933;51.908;7.730;2022-07-29T10:44:21;1.33;;;0.90;;
13708;SDS011;54933;51.908;7.730;2022-07-29T10:46:48;5.80;;;0.80;;
13708;SDS011;54933;51.908;7.730;2022-07-29T10:49:16;3.50;;;1.00;;
13708;SDS011;54933;51.908;7.730;2022-07-29T10:59:41;2.40;;;0.97;;
13708;SDS011;54933;51.908;7.730;2022-07-29T11:07:22;2.17;;;0.97;;
13708;SDS011;54933;51.908;7.730;2022-07-29T11:15:03;6.73;;;1.20;;
13708;SDS011;54933;51.908;7.730;2022-07-29T11:20:37;7.83;;;1.43;;
13708;SDS011;54933;51.908;7.730;2022-07-29T11:23:27;7.47;;;1.43;;
13708;SDS011;54933;51.908;7.730;2022-07-29T11:26:15;5.53;;;1.13;;
13708;SDS011;54933;51.908;7.730;2022-07-29T11:29:06;7.07;;;1.40;;
13708;SDS011;54933;51.908;7.730;2022-07-29T11:31:42;5.73;;;1.20;;
13708;SDS011;54933;51.908;7.730;2022-07-29T11:34:16;4.33;;;1.00;;
13708;SDS011;54933;51.908;7.730;2022-07-29T11:39:31;4.20;;;1.17;;
13708;SDS011;54933;51.908;7.730;2022-07-29T11:42:36;2.77;;;1.10;;
13708;SDS011;54933;51.908;7.730;2022-07-29T11:47:37;5.60;;;1.20;;
13708;SDS011;54933;51.908;7.730;2022-07-29T11:50:05;4.67;;;1.20;;
13708;SDS011;54933;51.908;7.730;2022-07-29T11:52:35;5.37;;;1.43;;
13708;SDS011;54933;51.908;7.730;2022-07-29T11:55:08;3.47;;;1.23;;
13708;SDS011;54933;51.908;7.730;2022-07-29T11:57:35;5.90;;;1.23;;
13708;SDS011;54933;51.908;7.730;2022-07-29T12:00:02;4.43;;;1.13;;
13708;SDS011;54933;51.908;7.730;2022-07-29T12:02:41;1.20;;;1.10;;
13708;SDS011;54933;51.908;7.730;2022-07-29T12:05:09;2.43;;;1.17;;
13708;SDS011;54933;51.908;7.730;2022-07-29T12:07:38;4.30;;;1.23;;
13708;SDS011;54933;51.908;7.730;2022-07-29T12:10:04;1.20;;;1.10;;
13708;SDS011;54933;51.908;7.730;2022-07-29T12:12:31;2.33;;;1.00;;
13708;SDS011;54933;51.908;7.730;2022-07-29T12:14:56;4.30;;;1.30;;
13708;SDS011;54933;51.908;7.730;2022-07-29T12:17:32;3.73;;;1.30;;
13708;SDS011;54933;51.908;7.730;2022-07-29T12:19:59;1.87;;;1.10;;
13708;SDS011;54933;51.908;7.730;2022-07-29T12:22:36;2.43;;;1.63;;
13708;SDS011;54933;51.908;7.730;2022-07-29T12:25:05;1.20;;;1.20;;
13708;SDS011;54933;51.908;7.730;2022-07-29T12:27:36;2.63;;;1.10;;
13708;SDS011;54933;51.908;7.730;2022-07-29T12:30:07;7.13;;;1.23;;
13708;SDS011;54933;51.908;7.730;2022-07-29T12:32:37;2.53;;;1.30;;
13708;SDS011;54933;51.908;7.730;2022-07-29T12:35:13;5.83;;;1.40;;
13708;SDS011;54933;51.908;7.730;2022-07-29T12:37:41;7.40;;;1.43;;
13708;SDS011;54933;51.908;7.730;2022-07-29T12:40:09;14.80;;;1.73;;
13708;SDS011;54933;51.908;7.730;2022-07-29T12:42:35;5.90;;;1.17;;
13708;SDS011;54933;51.908;7.730;2022-07-29T12:45:02;3.73;;;1.60;;
13708;SDS011;54933;51.908;7.730;2022-07-29T12:47:28;3.33;;;1.43;;
13708;SDS011;54933;51.908;7.730;2022-07-29T12:50:07;6.40;;;1.30;;
13708;SDS011;54933;51.908;7.730;2022-07-29T12:52:39;4.40;;;2.03;;
13708;SDS011;54933;51.908;7.730;2022-07-29T12:55:04;5.37;;;1.20;;
13708;SDS011;54933;51.908;7.730;2022-07-29T12:57:30;2.10;;;1.30;;
13708;SDS011;54933;51.908;7.730;2022-07-29T13:02:36;2.47;;;1.30;;
13708;SDS011;54933;51.908;7.730;2022-07-29T13:05:02;8.87;;;1.70;;
13708;SDS011;54933;51.908;7.730;2022-07-29T13:07:30;5.10;;;1.30;;
13708;SDS011;54933;51.908;7.730;2022-07-29T13:10:18;3.83;;;1.10;;
13708;SDS011;54933;51.908;7.730;2022-07-29T13:15:38;6.53;;;1.57;;
13708;SDS011;54933;51.908;7.730;2022-07-29T13:18:06;6.43;;;1.20;;
13708;SDS011;54933;51.908;7.730;2022-07-29T13:20:51;3.57;;;1.43;;
13708;SDS011;54933;51.908;7.730;2022-07-29T13:23:16;1.83;;;1.17;;
13708;SDS011;54933;51.908;7.730;2022-07-29T13:25:41;3.50;;;0.93;;
13708;SDS011;54933;51.908;7.730;2022-07-29T13:28:07;2.83;;;1.47;;
13708;SDS011;54933;51.908;7.730;2022-07-29T13:30:32;3.93;;;1.30;;
13708;SDS011;54933;51.908;7.730;2022-07-29T13:32:58;4.63;;;1.27;;
13708;SDS011;54933;51.908;7.730;2022-07-29T13:35:23;7.70;;;1.70;;
13708;SDS011;54933;51.908;7.730;2022-07-29T13:37:48;3.77;;;1.20;;
13708;SDS011;54933;51.908;7.730;2022-07-29T13:40:15;1.47;;;1.00;;
13708;SDS011;54933;51.908;7.730;2022-07-29T13:42:40;1.97;;;1.20;;
13708;SDS011;54933;51.908;7.730;2022-07-29T13:45:06;3.40;;;1.10;;
13708;SDS011;54933;51.908;7.730;2022-07-29T13:47:32;1.90;;;1.20;;
13708;SDS011;54933;51.908;7.730;2022-07-29T13:49:57;2.93;;;1.23;;
13708;SDS011;54933;51.908;7.730;2022-07-29T13:52:22;1.43;;;1.30;;
13708;SDS011;54933;51.908;7.730;2022-07-29T13:54:48;2.33;;;1.10;;
13708;SDS011;54933;51.908;7.730;2022-07-29T13:57:13;1.93;;;1.20;;
13708;SDS011;54933;51.908;7.730;2022-07-29T13:59:40;2.50;;;1.13;;
13708;SDS011;54933;51.908;7.730;2022-07-29T14:02:06;2.10;;;1.10;;
13708;SDS011;54933;51.908;7.730;2022-07-29T14:04:32;2.00;;;1.10;;
13708;SDS011;54933;51.908;7.730;2022-07-29T14:06:58;3.53;;;1.20;;
13708;SDS011;54933;51.908;7.730;2022-07-29T14:09:23;1.47;;;1.10;;
13708;SDS011;54933;51.908;7.730;2022-07-29T14:11:49;1.03;;;1.00;;
13708;SDS011;54933;51.908;7.730;2022-07-29T14:14:16;3.60;;;1.83;;
13708;SDS011;54933;51.908;7.730;2022-07-29T14:16:41;4.73;;;1.00;;
13708;SDS011;54933;51.908;7.730;2022-07-29T14:19:06;2.73;;;1.30;;
13708;SDS011;54933;51.908;7.730;2022-07-29T14:21:32;1.97;;;1.13;;
13708;SDS011;54933;51.908;7.730;2022-07-29T14:23:57;8.40;;;1.37;;
13708;SDS011;54933;51.908;7.730;2022-07-29T14:26:23;1.60;;;1.10;;
13708;SDS011;54933;51.908;7.730;2022-07-29T14:28:48;3.57;;;1.33;;
13708;SDS011;54933;51.908;7.730;2022-07-29T14:31:14;4.60;;;1.20;;
13708;SDS011;54933;51.908;7.730;2022-07-29T14:33:40;4.33;;;1.00;;
13708;SDS011;54933;51.908;7.730;2022-07-29T14:36:05;1.97;;;1.10;;
13708;SDS011;54933;51.908;7.730;2022-07-29T14:38:30;3.17;;;1.00;;
13708;SDS011;54933;51.908;7.730;2022-07-29T14:40:55;2.73;;;1.20;;
13708;SDS011;54933;51.908;7.730;2022-07-29T14:43:21;1.10;;;1.00;;
13708;SDS011;54933;51.908;7.730;2022-07-29T14:45:46;3.03;;;1.10;;
13708;SDS011;54933;51.908;7.730;2022-07-29T14:48:11;3.93;;;1.13;;
13708;SDS011;54933;51.908;7.730;2022-07-29T14:50:37;3.00;;;1.10;;
13708;SDS011;54933;51.908;7.730;2022-07-29T14:53:02;1.10;;;1.00;;
13708;SDS011;54933;51.908;7.730;2022-07-29T14:55:27;3.67;;;1.27;;
13708;SDS011;54933;51.908;7.730;2022-07-29T14:57:53;1.37;;;1.10;;
13708;SDS011;54933;51.908;7.730;2022-07-29T15:00:19;1.80;;;0.97;;
13708;SDS011;54933;51.908;7.730;2022-07-29T15:02:45;1.20;;;1.10;;
13708;SDS011;54933;51.908;7.730;2022-07-29T15:05:11;1.20;;;1.10;;
13708;SDS011;54933;51.908;7.730;2022-07-29T15:07:37;1.77;;;1.00;;
13708;SDS011;54933;51.908;7.730;2022-07-29T15:10:02;1.13;;;0.87;;
13708;SDS011;54933;51.908;7.730;2022-07-29T15:12:29;3.90;;;1.00;;
13708;SDS011;54933;51.908;7.730;2022-07-29T15:14:54;1.47;;;1.27;;
13708;SDS011;54933;51.908;7.730;2022-07-29T15:17:20;1.10;;;1.00;;
13708;SDS011;54933;51.908;7.730;2022-07-29T15:19:45;0.83;;;0.83;;
13708;SDS011;54933;51.908;7.730;2022-07-29T15:22:10;0.93;;;0.83;;
13708;SDS011;54933;51.908;7.730;2022-07-29T15:24:36;1.30;;;0.90;;
13708;SDS011;54933;51.908;7.730;2022-07-29T15:27:01;2.07;;;1.20;;
13708;SDS011;54933;51.908;7.730;2022-07-29T15:29:27;3.90;;;1.30;;
13708;SDS011;54933;51.908;7.730;2022-07-29T15:31:52;2.67;;;1.30;;
13708;SDS011;54933;51.908;7.730;2022-07-29T15:34:17;3.07;;;1.20;;
13708;SDS011;54933;51.908;7.730;2022-07-29T15:36:45;2.83;;;1.13;;
13708;SDS011;54933;51.908;7.730;2022-07-29T15:39:10;3.73;;;1.10;;
13708;SDS011;54933;51.908;7.730;2022-07-29T15:41:35;3.50;;;1.10;;
13708;SDS011;54933;51.908;7.730;2022-07-29T15:44:01;2.13;;;1.40;;
13708;SDS011;54933;51.908;7.730;2022-07-29T15:46:26;0.80;;;0.80;;
13708;SDS011;54933;51.908;7.730;2022-07-29T15:49:10;2.30;;;1.00;;